ベロオリゾンテ の空港の天気 - METARとTAF

タンクレド・ネヴェス国際空港 ( SBCF / CNF ) - ブラジル ミナスジェライス州ベロオリゾンテ
飛行場実況気象(Metar)
観測時間02/17 11:00 BRT (02/17 14:00 UTC)
風向・風速西北西 4m/s
視程10km以上
天気現象
全天の8割程度の雲 雲底高度 120m
全天を覆う雲 雲底高度 520m
気温24℃
湿度74%
気圧1018hPa
METARSBCF 171400Z 30007KT 9999 BKN004 OVC017 24/19 Q1018
過去の天気等 Google飛行場航空写真 Wunderground天気予報

過去48時間のMETAR

飛行場予報(TAF)
発表時間: 2/17 05:00 BRT (2/17 08:00 UTC)
予報対象時間: 17日9時 BRT ~ 18日9時 BRT
風向・風速北西 4m/s
視程7000m
全天の4割程度の雲 雲底高度 210m
17日9時 BRT から 確率 30% で
視程1000m
天気現象もや
全天の8割程度の雲 雲底高度 120m
17日11時 BRT から 確率 30% で
視程4000m
天気現象
全天の8割程度の雲 雲底高度 210m
17日15時 BRT ~ 17日17時 BRT に徐々に
風向・風速東北東 3m/s
全天の4割程度の雲 雲底高度 760m
17日17時 BRT から 確率 30% で
視程4000m
天気現象雷雨
全天の8割程度の雲 雲底高度 760m
少しの積乱雲 雲底高度 910m
17日21時 BRT から 確率 30% で
視程1500m
天気現象雷雨
全天の8割程度の雲 雲底高度 300m
少しの積乱雲 雲底高度 760m
18日6時 BRT から 確率 30% で
視程3000m
天気現象
全天の8割程度の雲 雲底高度 910m
TAF SBCF 170800Z 1712/1812 32008KT 7000 SCT007 TX26/1718Z TN20/1806Z
PROB30 1712/1714 1000 BR BKN004
PROB30 1714/1718 4000 RA BKN007
BECMG 1718/ 1720 06005KT SCT025
PROB30 1720/1724 4000 TSRA BKN025 FEW030CB
BECMG 1800 /1802 11005KT SCT010
PROB30 1800/1802 1500 TSRA BKN010 FEW025CB
BECMG 1806 /1808 07005KT SCT030
PROB30 1809/1812 3000 RA BKN030 RMK PDE